.
WxDataArchive / Data Records for 2010-04-19
2010-04-18 April 2010 2010-04-20

Data Records for Monday, 19 April 2010

Time	Temp	Chill	HIndex	Humid	Dewpt	 Wind 	HiWind	WindDir	Rain 	Barom 
-----	----	-----	------	-----	-----	------	------	-------	-----	----- 
00:00	42.8	42.8	42.8	73	34.8	0	0	---	0.00	30.192 
00:05	42.6	42.6	42.6	74	34.9	0	0	---	0.00	30.192 
00:10	42.3	42.3	42.3	75	35.0	0	0	---	0.00	30.192 
00:15	42.2	42.2	42.2	75	34.9	0	0	---	0.00	30.198 
00:20	42.1	42.1	42.1	76	35.1	0	0	---	0.00	30.198 
00:25	41.8	41.8	41.8	76	34.8	0	0	---	0.00	30.198 
00:30	41.6	41.6	41.6	77	34.9	0	0	---	0.00	30.200 
00:35	41.5	41.5	41.5	77	34.8	0	0	---	0.00	30.200 
00:40	41.3	41.3	41.3	77	34.6	0	0	---	0.00	30.200 
00:45	41.2	41.2	41.2	77	34.5	0	0	---	0.00	30.201 
00:50	41.1	41.1	41.1	78	34.8	0	0	---	0.00	30.201 
00:55	40.9	40.9	40.9	78	34.6	0	0	---	0.00	30.201 
01:00	40.9	40.9	40.9	79	34.9	0	0	---	0.00	30.201 
01:05	40.8	40.8	40.8	79	34.8	0	0	---	0.00	30.201 
01:10	40.6	40.6	40.6	80	34.9	0	0	---	0.00	30.201 
01:15	40.5	40.5	40.5	80	34.8	0	0	---	0.00	30.198 
01:20	40.3	40.3	40.3	81	34.9	0	0	---	0.00	30.198 
01:25	40.2	40.2	40.2	81	34.8	0	0	---	0.00	30.198 
01:30	40.2	40.2	40.2	81	34.8	0	0	---	0.00	30.200 
01:35	40.1	40.1	40.1	82	35.1	0	0	---	0.00	30.200 
01:40	40.1	40.1	40.1	82	35.1	0	0	---	0.00	30.200 
01:45	39.9	39.9	39.9	82	34.9	0	0	---	0.00	30.202 
01:50	39.8	39.8	39.8	82	34.8	0	0	---	0.00	30.202 
01:55	39.6	39.6	39.6	83	34.9	0	0	---	0.00	30.202 
02:00	39.5	39.5	39.5	83	34.8	0	0	---	0.00	30.200 
02:05	39.3	39.3	39.3	83	34.6	0	0	---	0.00	30.200 
02:10	39.2	39.2	39.2	84	34.8	0	0	---	0.00	30.200 
02:15	39.1	39.1	39.1	84	34.7	0	0	---	0.00	30.201 
02:20	38.9	38.9	38.9	84	34.5	0	0	---	0.00	30.201 
02:25	38.8	38.8	38.8	84	34.4	0	0	---	0.00	30.201 
02:30	38.6	38.6	38.6	85	34.5	0	0	---	0.00	30.201 
02:35	38.5	38.5	38.5	85	34.4	0	0	---	0.00	30.201 
02:40	38.3	38.3	38.3	85	34.2	0	0	---	0.00	30.201 
02:45	38.2	38.2	38.2	85	34.1	0	0	---	0.00	30.200 
02:50	38.0	38.0	38.0	86	34.2	0	0	---	0.00	30.200 
02:55	37.8	37.8	37.8	86	34.0	0	0	---	0.00	30.200 
03:00	37.6	37.6	37.6	86	33.8	0	0	---	0.00	30.201 
03:05	37.5	37.5	37.5	86	33.7	0	0	---	0.00	30.201 
03:10	37.3	37.3	37.3	86	33.5	0	0	---	0.00	30.201 
03:15	37.2	37.2	37.2	87	33.7	0	0	---	0.00	30.205 
03:20	37.2	37.2	37.2	87	33.7	0	0	---	0.00	30.205 
03:25	37.0	37.0	37.0	87	33.5	0	0	---	0.00	30.205 
03:30	36.9	36.9	36.9	87	33.4	0	0	---	0.00	30.208 
03:35	36.8	36.8	36.8	87	33.3	0	0	---	0.00	30.208 
03:40	36.6	36.6	36.6	88	33.4	0	0	---	0.00	30.208 
03:45	36.5	36.5	36.5	88	33.3	0	0	---	0.00	30.208 
03:50	36.3	36.3	36.3	88	33.1	0	0	---	0.00	30.208 
03:55	36.2	36.2	36.2	88	33.0	0	0	---	0.00	30.208 
04:00	36.0	36.0	36.0	88	32.8	0	0	---	0.00	30.211 
04:05	36.0	36.0	36.0	88	32.8	0	0	---	0.00	30.211 
04:10	35.9	35.9	35.9	89	33.0	0	0	---	0.00	30.211 
04:15	35.8	35.8	35.8	89	32.9	0	0	---	0.00	30.205 
04:20	35.6	35.6	35.6	89	32.7	0	0	---	0.00	30.205 
04:25	35.6	35.6	35.6	89	32.7	0	0	---	0.00	30.205 
04:30	35.5	35.5	35.5	89	32.6	0	0	---	0.00	30.203 
04:35	35.3	35.3	35.3	90	32.7	0	0	---	0.00	30.203 
04:40	35.2	35.2	35.2	90	32.6	0	0	---	0.00	30.203 
04:45	35.0	35.0	35.0	90	32.4	0	0	---	0.00	30.202 
04:50	34.9	34.9	34.9	90	32.3	0	0	---	0.00	30.202 
04:55	34.7	34.7	34.7	90	32.1	0	0	---	0.00	30.202 
05:00	34.7	34.7	34.7	90	32.1	0	0	---	0.00	30.203 
05:05	34.6	34.6	34.6	90	32.0	0	0	---	0.00	30.203 
05:10	34.4	34.4	34.4	91	32.0	0	0	---	0.00	30.203 
05:15	34.4	34.4	34.4	91	32.0	0	0	---	0.00	30.206 
05:20	34.3	34.3	34.3	91	32.0	0	0	---	0.00	30.206 
05:25	34.3	34.3	34.3	91	32.0	0	0	---	0.00	30.206 
05:30	34.1	34.1	34.1	91	31.8	0	0	---	0.00	30.205 
05:35	34.1	34.1	34.1	91	31.8	0	0	---	0.00	30.205 
05:40	34.0	34.0	34.0	91	31.7	0	0	---	0.00	30.205 
05:45	33.8	33.8	33.8	91	31.5	0	0	---	0.00	30.205 
05:50	33.7	33.7	33.7	91	31.4	0	0	---	0.00	30.205 
05:55	33.7	33.7	33.7	91	31.4	0	0	---	0.00	30.205 
06:00	33.5	33.5	33.5	92	31.4	0	0	---	0.00	30.206 
06:05	33.4	33.4	33.4	91	31.1	0	0	---	0.00	30.206 
06:10	33.2	33.2	33.2	92	31.1	0	0	---	0.00	30.206 
06:15	33.2	33.2	33.2	92	31.1	0	0	---	0.00	30.207 
06:20	33.2	33.2	33.2	92	31.1	0	0	---	0.00	30.207 
06:25	33.1	33.1	33.1	92	31.0	0	0	---	0.00	30.207 
06:30	33.2	33.2	33.2	92	31.1	0	0	---	0.00	30.208 
06:35	33.1	33.1	33.1	92	31.0	0	0	---	0.00	30.208 
06:40	32.9	32.9	32.9	92	30.8	0	0	---	0.00	30.208 
06:45	32.9	32.9	32.9	92	30.8	0	0	---	0.00	30.211 
06:50	32.9	32.9	32.9	92	30.8	0	0	---	0.00	30.211 
06:55	32.9	32.9	32.9	92	30.8	0	0	---	0.00	30.211 
07:00	32.8	32.8	32.8	92	30.7	0	0	---	0.00	30.217 
07:05	32.8	32.8	32.8	92	30.7	0	0	---	0.00	30.217 
07:10	32.8	32.8	32.8	92	30.7	0	0	---	0.00	30.217 
07:15	32.9	32.9	32.9	92	30.8	0	0	---	0.00	30.221 
07:20	32.9	32.9	32.9	93	31.1	0	0	---	0.00	30.221 
07:25	33.1	33.1	33.1	93	31.3	0	0	---	0.00	30.221 
07:30	33.2	33.2	33.2	93	31.4	0	0	---	0.00	30.222 
07:35	33.5	33.5	33.5	93	31.7	0	0	---	0.00	30.222 
07:40	33.8	33.8	33.8	93	32.0	0	0	---	0.00	30.222 
07:45	34.3	34.3	34.3	93	32.5	0	0	---	0.00	30.228 
07:50	34.9	34.9	34.9	94	33.4	0	0	---	0.00	30.228 
07:55	35.5	35.5	35.5	94	33.9	0	0	---	0.00	30.228 
08:00	35.9	35.9	35.9	94	34.3	0	0	---	0.00	30.228 
08:05	36.5	36.5	36.5	94	34.9	0	0	---	0.00	30.228 
08:10	37.2	37.2	37.2	94	35.6	0	0	---	0.00	30.228 
08:15	38.2	38.2	38.2	94	36.6	0	1	90	0.00	30.235 
08:20	39.1	39.1	39.1	94	37.5	0	1	90	0.00	30.235 
08:25	40.1	40.1	40.1	93	38.2	0	0	---	0.00	30.235 
08:30	41.2	41.2	41.2	92	39.1	0	1	90	0.00	30.233 
08:35	42.1	42.1	42.1	88	38.8	0	1	90	0.00	30.233 
08:40	42.6	42.6	42.6	86	38.7	0	0	---	0.00	30.233 
08:45	43.1	43.1	43.1	83	38.3	0	1	90	0.00	30.233 
08:50	43.9	43.9	43.9	80	38.1	0	1	90	0.00	30.233 
08:55	44.8	44.8	44.8	77	38.0	0	3	90	0.00	30.233 
09:00	45.7	45.7	45.7	73	37.5	0	1	90	0.00	30.229 
09:05	46.4	46.4	46.4	71	37.5	0	1	90	0.00	30.229 
09:10	47.0	47.0	47.0	69	37.4	0	1	90	0.00	30.229 
09:15	47.7	47.7	47.7	66	36.9	0	3	90	0.00	30.230 
09:20	48.3	48.3	48.3	63	36.3	0	2	90	0.00	30.230 
09:25	48.9	48.9	48.9	60	35.6	0	3	90	0.00	30.230 
09:30	49.4	49.4	49.4	60	36.1	1	4	90	0.00	30.231 
09:35	49.5	49.5	49.5	60	36.2	0	2	112	0.00	30.231 
09:40	49.8	49.8	49.8	58	35.6	1	3	112	0.00	30.231 
09:45	50.1	50.1	50.1	58	35.9	0	3	112	0.00	30.231 
09:50	50.7	50.7	50.7	60	37.3	0	2	112	0.00	30.231 
09:55	51.0	51.0	51.0	55	35.4	1	4	90	0.00	30.231 
10:00	51.1	51.1	51.1	56	36.0	1	4	90	0.00	30.234 
10:05	51.0	51.0	51.0	55	35.4	2	5	90	0.00	30.234 
10:10	51.1	51.1	51.1	56	36.0	1	4	90	0.00	30.234 
10:15	51.6	51.6	51.6	53	35.0	1	3	90	0.00	30.241 
10:20	51.9	51.9	51.9	52	34.8	1	3	90	0.00	30.241 
10:25	52.2	52.2	52.2	52	35.1	1	4	90	0.00	30.241 
10:30	52.8	52.8	52.8	52	35.7	1	2	90	0.00	30.238 
10:35	53.1	53.1	53.1	48	33.9	2	5	90	0.00	30.238 
10:40	52.9	52.9	52.9	50	34.8	1	4	90	0.00	30.238 
10:45	53.3	53.3	53.3	47	33.6	1	4	90	0.00	30.235 
10:50	53.5	53.5	53.5	46	33.2	2	4	90	0.00	30.235 
10:55	53.3	53.3	53.3	46	33.1	2	5	90	0.00	30.235 
11:00	53.3	53.3	53.3	46	33.1	1	4	90	0.00	30.234 
11:05	53.6	53.6	53.6	46	33.3	2	5	90	0.00	30.234 
11:10	53.9	53.9	53.9	48	34.7	2	5	90	0.00	30.234 
11:15	54.1	54.1	54.1	48	34.8	1	3	45	0.00	30.233 
11:20	54.4	54.4	54.4	49	35.6	1	3	90	0.00	30.233 
11:25	54.7	54.7	54.7	46	34.3	1	4	90	0.00	30.233 
11:30	54.8	54.8	54.8	44	33.3	1	3	68	0.00	30.231 
11:35	54.8	54.8	54.8	45	33.9	0	2	68	0.00	30.231 
11:40	55.1	55.1	55.1	43	33.0	2	6	90	0.00	30.231 
11:45	55.6	55.6	55.6	45	34.6	1	4	112	0.00	30.230 
11:50	55.7	55.7	55.7	43	33.6	1	5	90	0.00	30.230 
11:55	55.9	55.9	55.9	42	33.1	2	6	90	0.00	30.230 
12:00	55.7	55.7	55.7	42	33.0	2	7	112	0.00	30.229 
12:05	55.9	55.9	55.9	48	36.5	0	3	90	0.00	30.229 
12:10	56.2	56.2	56.2	44	34.6	1	4	90	0.00	30.229 
12:15	56.3	56.3	56.3	43	34.1	2	6	90	0.00	30.228 
12:20	56.6	56.6	56.6	45	35.5	1	5	135	0.00	30.228 
12:25	56.6	56.6	56.6	44	34.9	1	5	45	0.00	30.228 
12:30	56.3	56.3	56.3	43	34.1	1	2	45	0.00	30.223 
12:35	56.7	56.7	56.7	45	35.6	1	5	90	0.00	30.223 
12:40	57.0	57.0	57.0	43	34.7	1	5	112	0.00	30.223 
12:45	57.5	57.5	57.5	44	35.8	1	3	90	0.00	30.215 
12:50	57.5	57.5	57.5	45	36.3	0	1	90	0.00	30.215 
12:55	57.8	57.8	57.8	42	34.9	2	4	112	0.00	30.215 
13:00	57.6	57.6	57.6	46	37.0	2	5	112	0.00	30.213 
13:05	57.8	57.8	57.8	43	35.5	1	4	112	0.00	30.213 
13:10	58.1	58.1	58.1	46	37.4	1	3	90	0.00	30.213 
13:15	58.1	58.1	58.1	42	35.1	0	2	90	0.00	30.210 
13:20	58.4	58.4	58.4	42	35.4	0	2	90	0.00	30.210 
13:25	58.3	58.3	58.3	39	33.5	1	4	338	0.00	30.210 
13:30	58.9	58.9	58.9	44	37.0	1	4	90	0.00	30.204 
13:35	58.9	58.9	58.9	39	34.0	0	2	45	0.00	30.204 
13:40	58.9	58.9	58.9	40	34.6	1	6	112	0.00	30.204 
13:45	58.9	58.9	58.9	43	36.4	1	4	112	0.00	30.196 
13:50	59.2	59.2	59.2	41	35.5	2	4	90	0.00	30.196 
13:55	58.9	58.9	58.9	40	34.6	1	3	112	0.00	30.196 
14:00	58.7	58.7	58.7	40	34.4	1	5	112	0.00	30.192 
14:05	59.2	59.2	59.2	40	34.9	1	4	112	0.00	30.192 
14:10	59.3	59.3	59.3	36	32.4	2	9	90	0.00	30.192 
14:15	59.3	59.3	59.3	37	33.0	1	4	90	0.00	30.185 
14:20	59.5	59.5	59.5	42	36.4	2	6	90	0.00	30.185 
14:25	59.5	59.5	59.5	39	34.5	1	5	45	0.00	30.185 
14:30	59.6	59.6	59.6	38	34.0	1	3	68	0.00	30.181 
14:35	59.8	59.8	59.8	42	36.7	0	2	338	0.00	30.181 
14:40	59.9	59.9	59.9	38	34.2	0	1	338	0.00	30.181 
14:45	60.4	60.4	60.4	43	37.8	1	2	0	0.00	30.177 
14:50	60.9	60.9	60.9	38	35.1	0	2	45	0.00	30.177 
14:55	61.0	61.0	61.0	39	35.9	0	3	45	0.00	30.177 
15:00	61.2	61.2	61.2	38	35.4	1	6	68	0.00	30.169 
15:05	61.2	61.2	61.2	38	35.4	1	5	45	0.00	30.169 
15:10	61.0	61.0	61.0	41	37.1	1	4	90	0.00	30.169 
15:15	61.0	61.0	61.0	41	37.1	0	2	90	0.00	30.169 
15:20	61.3	61.3	61.3	39	36.1	1	5	68	0.00	30.169 
15:25	61.3	61.3	61.3	32	31.2	1	3	90	0.00	30.169 
15:30	61.5	61.5	61.5	36	34.3	0	2	112	0.00	30.160 
15:35	61.5	61.5	61.5	36	34.3	0	3	22	0.00	30.160 
15:40	61.5	61.5	61.5	35	33.6	0	2	45	0.00	30.160 
15:45	61.8	61.8	61.8	39	36.6	1	4	45	0.00	30.152 
15:50	62.0	62.0	62.0	39	36.8	1	3	68	0.00	30.152 
15:55	62.0	62.0	62.0	34	33.3	1	2	68	0.00	30.152 
16:00	61.8	61.8	61.8	32	31.6	3	6	90	0.00	30.149 
16:05	61.6	61.6	61.6	35	33.7	2	6	90	0.00	30.149 
16:10	61.3	61.3	61.3	33	32.0	1	4	112	0.00	30.149 
16:15	61.5	61.5	61.5	37	35.0	1	4	112	0.00	30.146 
16:20	61.8	61.8	61.8	35	33.9	1	4	45	0.00	30.146 
16:25	61.8	61.8	61.8	32	31.6	1	2	45	0.00	30.146 
16:30	62.0	62.0	62.0	35	34.0	1	2	158	0.00	30.140 
16:35	62.1	62.1	62.1	32	31.9	1	2	112	0.00	30.140 
16:40	62.1	62.1	62.1	31	31.1	1	4	90	0.00	30.140 
16:45	62.3	62.3	62.3	31	31.3	0	3	90	0.00	30.136 
16:50	62.1	62.1	62.1	32	31.9	1	4	90	0.00	30.136 
16:55	62.0	62.0	62.0	33	32.6	1	4	112	0.00	30.136 
17:00	62.0	62.0	62.0	32	31.8	0	3	45	0.00	30.135 
17:05	61.8	61.8	61.8	32	31.6	0	1	45	0.00	30.135 
17:10	61.6	61.6	61.6	33	32.2	0	2	45	0.00	30.135 
17:15	61.5	61.5	61.5	36	34.3	0	1	22	0.00	30.129 
17:20	61.5	61.5	61.5	32	31.4	0	2	22	0.00	30.129 
17:25	61.5	61.5	61.5	34	32.9	2	3	112	0.00	30.129 
17:30	61.5	61.5	61.5	33	32.1	1	4	112	0.00	30.130 
17:35	61.6	61.6	61.6	30	29.9	0	1	0	0.00	30.130 
17:40	61.8	61.8	61.8	36	34.6	0	2	22	0.00	30.130 
17:45	61.8	61.8	61.8	33	32.4	0	3	112	0.00	30.126 
17:50	62.0	62.0	62.0	35	34.0	0	2	112	0.00	30.126 
17:55	61.8	61.8	61.8	33	32.4	0	1	112	0.00	30.126 
18:00	61.5	61.5	61.5	32	31.4	0	1	112	0.00	30.127 
18:05	61.3	61.3	61.3	33	32.0	0	1	112	0.00	30.127 
18:10	61.3	61.3	61.3	31	30.4	0	2	135	0.00	30.127 
18:15	61.5	61.5	61.5	33	32.1	0	1	135	0.00	30.126 
18:20	61.5	61.5	61.5	34	32.9	1	2	22	0.00	30.126 
18:25	61.3	61.3	61.3	35	33.4	0	2	90	0.00	30.126 
18:30	61.0	61.0	61.0	33	31.7	0	1	90	0.00	30.128 
18:35	61.0	61.0	61.0	34	32.4	0	1	90	0.00	30.128 
18:40	60.9	60.9	60.9	34	32.3	0	1	90	0.00	30.128 
18:45	60.7	60.7	60.7	34	32.2	0	2	90	0.00	30.124 
18:50	60.5	60.5	60.5	35	32.7	0	1	90	0.00	30.124 
18:55	60.4	60.4	60.4	35	32.6	0	1	90	0.00	30.124 
19:00	60.1	60.1	60.1	35	32.4	0	0	---	0.00	30.125 
19:05	59.8	59.8	59.8	35	32.1	0	1	90	0.00	30.125 
19:10	59.8	59.8	59.8	37	33.5	0	0	---	0.00	30.125 
19:15	59.6	59.6	59.6	39	34.6	0	1	90	0.00	30.121 
19:20	59.6	59.6	59.6	38	34.0	0	2	90	0.00	30.121 
19:25	59.5	59.5	59.5	38	33.9	0	2	90	0.00	30.121 
19:30	59.3	59.3	59.3	38	33.7	0	2	90	0.00	30.122 
19:35	59.2	59.2	59.2	39	34.3	0	1	90	0.00	30.122 
19:40	58.9	58.9	58.9	39	34.0	0	1	90	0.00	30.122 
19:45	58.7	58.7	58.7	38	33.2	1	2	90	0.00	30.120 
19:50	58.6	58.6	58.6	39	33.7	0	1	90	0.00	30.120 
19:55	58.4	58.4	58.4	39	33.5	0	1	90	0.00	30.120 
20:00	58.1	58.1	58.1	39	33.3	0	0	---	0.00	30.121 
20:05	57.6	57.6	57.6	41	34.1	0	0	---	0.00	30.121 
20:10	57.3	57.3	57.3	41	33.8	0	0	---	0.00	30.121 
20:15	56.9	56.9	56.9	41	33.4	0	0	---	0.00	30.114 
20:20	56.5	56.5	56.5	41	33.1	0	0	---	0.00	30.114 
20:25	56.0	56.0	56.0	42	33.2	0	0	---	0.00	30.114 
20:30	55.6	55.6	55.6	44	34.0	0	0	---	0.00	30.116 
20:35	55.1	55.1	55.1	45	34.1	0	0	---	0.00	30.116 
20:40	54.8	54.8	54.8	46	34.4	0	0	---	0.00	30.116 
20:45	54.4	54.4	54.4	47	34.6	0	0	---	0.00	30.118 
20:50	53.9	53.9	53.9	49	35.2	0	0	---	0.00	30.118 
20:55	53.6	53.6	53.6	50	35.4	0	0	---	0.00	30.118 
21:00	53.3	53.3	53.3	51	35.6	0	0	---	0.00	30.120 
21:05	53.1	53.1	53.1	52	35.9	0	0	---	0.00	30.120 
21:10	52.8	52.8	52.8	51	35.2	0	0	---	0.00	30.120 
21:15	52.5	52.5	52.5	51	34.9	0	0	---	0.00	30.118 
21:20	52.2	52.2	52.2	52	35.1	0	0	---	0.00	30.118 
21:25	51.9	51.9	51.9	53	35.3	0	0	---	0.00	30.118 
21:30	51.7	51.7	51.7	53	35.1	0	0	---	0.00	30.120 
21:35	51.4	51.4	51.4	53	34.8	0	0	---	0.00	30.120 
21:40	51.3	51.3	51.3	54	35.2	0	0	---	0.00	30.120 
21:45	51.1	51.1	51.1	57	36.4	0	0	---	0.00	30.122 
21:50	51.0	51.0	51.0	58	36.7	0	0	---	0.00	30.122 
21:55	50.8	50.8	50.8	58	36.6	0	0	---	0.00	30.122 
22:00	50.7	50.7	50.7	58	36.5	0	0	---	0.00	30.124 
22:05	50.5	50.5	50.5	58	36.3	0	0	---	0.00	30.124 
22:10	50.2	50.2	50.2	58	36.0	0	0	---	0.00	30.124 
22:15	50.1	50.1	50.1	59	36.3	0	0	---	0.00	30.126 
22:20	49.8	49.8	49.8	59	36.1	0	0	---	0.00	30.126 
22:25	49.5	49.5	49.5	58	35.3	0	0	---	0.00	30.126 
22:30	49.4	49.4	49.4	59	35.7	0	0	---	0.00	30.123 
22:35	49.2	49.2	49.2	61	36.3	0	0	---	0.00	30.123 
22:40	48.9	48.9	48.9	62	36.5	0	0	---	0.00	30.123 
22:45	48.8	48.8	48.8	62	36.4	0	0	---	0.00	30.120 
22:50	48.6	48.6	48.6	62	36.2	0	0	---	0.00	30.120 
22:55	48.5	48.5	48.5	63	36.5	0	0	---	0.00	30.120 
23:00	48.3	48.3	48.3	63	36.3	0	0	---	0.00	30.119 
23:05	48.0	48.0	48.0	63	36.0	0	0	---	0.00	30.119 
23:10	47.9	47.9	47.9	64	36.3	0	0	---	0.00	30.119 
23:15	47.7	47.7	47.7	65	36.5	0	0	---	0.00	30.113 
23:20	47.6	47.6	47.6	65	36.4	0	0	---	0.00	30.113 
23:25	47.3	47.3	47.3	66	36.5	0	0	---	0.00	30.113 
23:30	47.1	47.1	47.1	66	36.3	0	0	---	0.00	30.111 
23:35	47.0	47.0	47.0	68	37.0	0	0	---	0.00	30.111 
23:40	46.8	46.8	46.8	69	37.2	0	0	---	0.00	30.111 
23:45	46.7	46.7	46.7	69	37.1	0	0	---	0.00	30.100 
23:50	46.5	46.5	46.5	71	37.6	0	0	---	0.00	30.100 
23:55	46.4	46.4	46.4	73	38.2	0	0	---	0.00	30.100 

CoCoRaHS
IN-AL-39
A2 Web Hosting
Creative Commons License
GoDaddy
search engine by freefind advanced

loaded 2018-11-15 03:16:06 • last modified 2010-11-18 10:43:29
Privacy PolicyDisclaimer
• wx.awcolley.com is powered by PmWiki v.2002016 •
• all content (unless otherwise noted) © 2018 A W Colley